Latest Weather Observations for Mount Gambier

IDS60801

Issued at 6:35 am CST Thursday 28 August 2014 (issued every 30 minutes, with the page automatically refreshed every 10 minutes)

About weather observations | Map of weather stations | Latest weather observations for SA | Other Formats
Station Details ID: 026021 Name: MOUNT GAMBIER AERO Lat: -37.75 Lon: 140.77 Height: 63.0 m
Data from the previous 72 hours. | See also: Recent months at Mount Gambier
Date/Time
CST
Temp
°C
App
Temp
°C
Dew
Point
Rel
Hum
%
Delta-T
°C
Wind Press
QNH
hPa
Press
MSL
hPa
Rain
since 9 am
mm
Dir
 
Spd
km/h
Gust
km/h
Spd
kts
Gust
kts
28/06:30am 4.8 3.6 4.6 99 0.1 NNE 0 0 0 0 1028.2 - 0.0
28/06:00am 5.0 3.7 4.3 95 0.3 NNE 0 0 0 0 1028.0 1028.1 0.0
28/05:49am 4.7 3.3 3.7 93 0.4 CALM 0 0 0 0 1027.9 - 0.0
28/05:30am 4.1 2.8 4.1 100 0.0 CALM 0 0 0 0 1027.8 - 0.0
28/05:00am 4.9 3.8 4.9 100 0.0 CALM 0 0 0 0 1027.5 - 0.0
28/04:53am 6.6 5.4 6.4 99 0.1 N 2 7 1 4 1027.4 - 0.0
28/04:30am 6.5 3.8 5.6 94 0.4 NNE 9 11 5 6 1027.4 - 0.0
28/04:03am 7.4 4.9 6.7 95 0.3 NNE 9 11 5 6 1027.4 - 0.0
28/04:00am 7.5 5.1 6.8 95 0.3 NNE 9 11 5 6 1027.5 - 0.0
28/03:51am 7.5 5.0 6.6 94 0.4 NNE 9 11 5 6 1027.4 - 0.0
28/03:32am 7.3 4.5 6.9 97 0.2 N 11 13 6 7 1027.4 - 0.0
28/03:30am 7.1 4.3 6.9 99 0.1 N 11 13 6 7 1027.3 - 0.0
28/03:23am 7.0 4.1 6.6 97 0.2 N 11 13 6 7 1027.4 - 0.0
28/03:07am 6.7 4.2 6.5 99 0.1 N 9 9 5 5 1027.4 - 0.0
28/03:00am 6.7 4.2 6.5 99 0.1 N 9 11 5 6 1027.5 1027.6 0.0
28/02:37am 6.7 4.1 6.3 97 0.2 NNE 9 11 5 6 1027.6 - 0.0
28/02:30am 6.4 3.7 5.7 95 0.3 NNE 9 11 5 6 1027.7 - 0.0
28/02:17am 6.0 3.7 5.8 99 0.1 NNE 7 9 4 5 1027.7 - 0.0
28/02:00am 4.9 2.2 3.9 93 0.4 NNE 7 9 4 5 1027.8 - 0.0
28/01:33am 4.6 2.2 4.4 99 0.1 NNE 6 7 3 4 1028.0 - 0.0
28/01:30am 5.0 2.2 3.3 89 0.7 NNE 7 7 4 4 1028.1 - 0.0
28/01:08am 4.3 1.3 4.3 100 0.0 NE 9 11 5 6 1028.1 - 0.0
28/01:00am 4.6 2.0 4.4 99 0.1 NNE 7 9 4 5 1028.1 - 0.0
28/12:30am 4.5 3.2 4.3 99 0.1 CALM 0 0 0 0 1028.6 - 0.0
28/12:00am 6.2 4.5 5.7 97 0.2 NNE 4 7 2 4 1028.5 1028.6 0.0
 
Date/Time
CST
Temp
°C
App
Temp
°C
Dew
Point
Rel
Hum
%
Delta-T
°C
Wind Press
QNH
hPa
Press
MSL
hPa
Rain
since 9 am
mm
Dir
 
Spd
km/h
Gust
km/h
Spd
kts
Gust
kts
27/11:51pm 6.1 5.1 5.4 95 0.3 CALM 0 0 0 0 1028.5 - 0.0
27/11:30pm 5.9 5.0 5.9 100 0.0 CALM 0 0 0 0 1028.6 - 0.0
27/11:27pm 6.5 5.7 6.3 99 0.1 CALM 0 0 0 0 1028.7 - 0.0
27/11:08pm 6.6 5.8 6.4 99 0.1 CALM 0 0 0 0 1028.8 - 0.0
27/11:07pm 6.8 6.0 6.4 97 0.2 CALM 0 0 0 0 1028.8 - 0.0
27/11:00pm 6.3 5.3 5.4 94 0.4 CALM 0 0 0 0 1028.8 - 0.0
27/10:37pm 6.9 5.7 6.5 97 0.2 NNE 2 7 1 4 1028.8 - 0.0
27/10:30pm 7.9 6.2 7.5 97 0.2 NNE 6 7 3 4 1028.7 - 0.0
27/10:00pm 8.4 6.6 7.8 96 0.3 NNE 7 7 4 4 1028.6 - 0.0
27/09:30pm 8.0 6.1 7.4 96 0.3 NNE 7 7 4 4 1028.5 - 0.0
27/09:00pm 9.3 7.8 8.5 95 0.4 NNE 6 6 3 3 1028.5 1028.6 0.0
27/08:30pm 8.9 8.4 7.8 93 0.5 CALM 0 0 0 0 1028.4 - 0.0
27/08:00pm 9.6 9.2 8.1 90 0.7 CALM 0 0 0 0 1028.5 - 0.0
27/07:30pm 9.8 8.6 8.1 89 0.8 SSW 4 6 2 3 1028.3 - 0.0
27/07:00pm 10.9 9.4 8.4 84 1.2 SW 6 9 3 5 1028.1 - 0.0
27/06:30pm 12.0 11.7 8.6 80 1.7 CALM 0 0 0 0 1027.7 - 0.0
27/06:00pm 13.1 11.0 8.2 72 2.4 SW 9 11 5 6 1027.5 1027.6 0.0
27/05:30pm 14.7 12.0 7.4 61 3.6 WSW 11 11 6 6 1027.2 - 0.0
27/05:00pm 15.7 13.3 7.2 57 4.2 SW 9 13 5 7 1027.0 - 0.0
27/04:30pm 16.5 13.6 8.0 57 4.3 WSW 13 17 7 9 1026.8 - 0.0
27/04:00pm 17.4 14.6 8.4 55 4.6 WSW 13 17 7 9 1026.4 - 0.0
27/03:30pm 18.4 15.3 8.7 53 5.0 W 15 19 8 10 1026.3 - 0.0
27/03:00pm 18.7 15.7 6.1 43 6.2 WSW 11 15 6 8 1026.3 1026.4 0.0
27/02:30pm 18.6 15.8 7.0 46 5.8 W 11 17 6 9 1026.3 - 0.0
27/02:00pm 19.0 17.1 6.8 45 6.1 WNW 6 11 3 6 1026.2 - 0.0
27/01:30pm 19.1 16.6 8.2 49 5.6 NW 11 15 6 8 1026.4 - 0.0
27/01:00pm 18.8 16.6 9.3 54 5.0 NNW 11 17 6 9 1026.9 - 0.0
27/12:30pm 18.4 16.5 9.0 54 4.9 N 9 13 5 7 1026.9 - 0.0
27/12:00pm 18.3 15.9 8.6 53 5.0 NW 11 15 6 8 1027.4 1027.5 0.0
27/11:30am 17.3 13.7 8.3 55 4.6 NNW 17 22 9 12 1027.8 - 0.0
27/11:00am 16.7 13.3 7.7 55 4.5 NNW 15 20 8 11 1028.0 - 0.0
27/10:30am 16.2 13.5 9.0 62 3.7 NNW 13 17 7 9 1028.1 - 0.0
27/10:00am 14.7 12.9 9.4 70 2.7 NNW 9 13 5 7 1028.2 - 0.0
27/09:30am 13.0 11.8 9.7 80 1.7 N 6 9 3 5 1028.3 - 0.0
27/09:00am 11.3 9.1 8.0 80 1.6 N 9 11 5 6 1028.1 1028.2 0.2
27/08:30am 8.8 8.3 7.7 93 0.5 CALM 0 0 0 0 1028.0 - 0.2
27/08:00am 7.3 6.5 6.6 95 0.3 CALM 0 0 0 0 1027.9 - 0.2
27/07:30am 4.8 3.6 4.8 100 0.0 CALM 0 0 0 0 1027.3 - 0.2
27/07:00am 4.4 2.4 4.4 100 0.0 W 4 7 2 4 1027.1 - 0.2
27/06:30am 6.3 2.9 5.8 97 0.2 NNE 13 15 7 8 1026.3 - 0.2
27/06:00am 6.2 2.4 5.7 97 0.2 NNE 15 17 8 9 1026.1 1026.2 0.2
27/05:30am 4.0 -0.2 3.8 99 0.1 NNE 15 19 8 10 1025.8 - 0.2
27/05:23am 3.9 0.1 3.7 99 0.1 NNE 13 15 7 8 1025.9 - 0.2
27/05:00am 3.5 -0.1 2.8 95 0.3 NNE 11 13 6 7 1025.9 - 0.2
27/04:57am 2.7 -1.4 2.4 98 0.1 NNE 13 13 7 7 1025.9 - 0.2
27/04:38am 2.9 0.0 2.4 96 0.2 NNE 7 9 4 5 1026.0 - 0.2
27/04:30am 2.9 -0.4 2.4 96 0.2 NE 9 9 5 5 1026.0 - 0.2
27/04:00am 3.0 1.4 2.5 96 0.2 CALM 0 0 0 0 1025.9 - 0.2
27/03:34am 3.3 0.5 3.1 99 0.1 NNE 7 9 4 5 1025.9 - 0.2
27/03:30am 3.4 0.6 3.2 99 0.1 NNE 7 9 4 5 1025.8 - 0.2
27/03:01am 3.1 0.4 2.6 96 0.2 NNE 6 7 3 4 1025.9 - 0.2
27/03:00am 3.1 0.4 2.6 96 0.2 NNE 6 7 3 4 1025.9 1026.0 0.2
27/02:30am 3.6 2.2 3.4 99 0.1 CALM 0 0 0 0 1026.0 - 0.2
27/02:00am 3.9 2.5 3.7 99 0.1 CALM 0 0 0 0 1026.1 - 0.2
27/01:32am 3.9 2.5 3.4 97 0.2 CALM 0 0 0 0 1026.1 - 0.2
27/01:30am 3.8 2.4 3.6 99 0.1 CALM 0 2 0 1 1026.1 - 0.2
27/01:00am 4.1 2.8 3.9 99 0.1 CALM 0 0 0 0 1026.1 - 0.2
27/12:30am 4.6 3.4 4.6 100 0.0 CALM 0 0 0 0 1026.2 - 0.2
27/12:00am 5.4 4.3 5.2 99 0.1 CALM 0 0 0 0 1026.1 1026.2 0.2
 
Date/Time
CST
Temp
°C
App
Temp
°C
Dew
Point
Rel
Hum
%
Delta-T
°C
Wind Press
QNH
hPa
Press
MSL
hPa
Rain
since 9 am
mm
Dir
 
Spd
km/h
Gust
km/h
Spd
kts
Gust
kts
26/11:52pm 5.5 4.4 5.3 99 0.1 CALM 0 0 0 0 1026.1 - 0.2
26/11:30pm 4.9 3.7 4.7 99 0.1 CALM 0 0 0 0 1026.1 - 0.2
26/11:25pm 4.7 3.5 4.7 100 0.0 CALM 0 0 0 0 1026.1 - 0.2
26/11:00pm 5.8 4.4 5.6 99 0.1 NNW 2 7 1 4 1026.1 - 0.2
26/10:30pm 5.8 3.4 5.3 97 0.2 NNW 7 9 4 5 1026.2 - 0.2
26/10:00pm 6.4 4.2 6.2 99 0.1 NW 7 9 4 5 1026.3 - 0.2
26/09:39pm 6.6 4.6 6.2 97 0.2 NE 6 9 3 5 1026.3 - 0.2
26/09:30pm 7.0 5.1 6.8 99 0.1 ENE 6 9 3 5 1026.3 - 0.2
26/09:12pm 6.7 5.0 5.8 94 0.4 N 4 9 2 5 1026.3 - 0.2
26/09:00pm 6.9 5.0 6.5 97 0.2 N 6 7 3 4 1026.2 1026.3 0.2
26/08:30pm 7.8 7.2 7.4 97 0.2 CALM 0 0 0 0 1026.0 - 0.2
26/08:00pm 8.3 7.8 7.7 96 0.3 CALM 0 0 0 0 1026.0 - 0.2
26/07:59pm 8.3 7.7 7.4 94 0.4 CALM 0 0 0 0 1026.0 - 0.2
26/07:40pm 8.1 7.6 7.7 97 0.2 CALM 0 0 0 0 1025.8 - 0.2
26/07:30pm 9.2 8.8 8.4 95 0.4 CALM 0 0 0 0 1025.8 - 0.2
26/07:00pm 9.5 9.2 8.5 93 0.5 CALM 0 0 0 0 1025.8 - 0.2
26/06:30pm 10.5 10.4 9.3 92 0.6 CALM 0 0 0 0 1025.5 - 0.2
26/06:00pm 11.6 11.4 9.2 85 1.2 CALM 0 0 0 0 1025.3 1025.4 0.2
26/05:30pm 12.6 12.1 9.2 80 1.7 ESE 2 6 1 3 1025.1 - 0.2
26/05:00pm 14.8 13.2 8.9 68 3.0 ESE 7 9 4 5 1025.0 - 0.2
26/04:30pm 15.7 14.1 8.6 62 3.6 ESE 7 9 4 5 1024.9 - 0.2
26/04:00pm 16.2 14.3 7.6 56 4.3 E 7 9 4 5 1024.9 - 0.2
26/03:30pm 16.3 14.6 7.7 56 4.3 E 6 11 3 6 1025.0 - 0.2
26/03:00pm 16.5 14.3 7.7 56 4.4 ESE 9 13 5 7 1025.0 1025.1 0.2
26/02:30pm 16.4 14.9 8.5 59 4.0 ENE 6 13 3 7 1025.3 - 0.2
26/02:00pm 16.0 13.5 8.3 60 3.9 NE 11 15 6 8 1025.6 - 0.2
26/01:30pm 15.7 13.1 7.9 59 3.9 NE 11 15 6 8 1025.8 - 0.2
26/01:00pm 15.5 12.7 8.6 63 3.5 ENE 13 19 7 10 1025.9 - 0.0
26/12:30pm 15.0 11.8 8.4 64 3.3 ENE 15 19 8 10 1026.4 - 0.0
26/12:00pm 14.6 11.5 8.9 68 2.9 ENE 15 19 8 10 1027.1 1027.2 0.0
26/11:30am 13.7 10.1 8.3 70 2.7 ENE 17 22 9 12 1027.5 - 0.0
26/11:00am 14.4 10.5 8.6 68 2.9 E 19 24 10 13 1027.9 - 0.0
26/10:30am 13.4 9.1 7.7 68 2.8 E 20 32 11 17 1028.3 - 0.0
26/10:00am 12.0 7.3 7.9 76 2.0 E 22 30 12 16 1028.6 - 0.0
26/09:30am 12.4 7.1 8.3 76 2.0 E 26 35 14 19 1028.8 - 0.0
26/09:00am 11.4 7.3 8.6 83 1.4 E 20 26 11 14 1028.9 1029.0 0.2
26/08:30am 10.1 7.0 8.7 91 0.7 E 15 19 8 10 1029.0 - 0.2
26/08:00am 8.2 7.0 8.0 99 0.1 E 4 7 2 4 1029.0 - 0.2
26/07:30am 6.9 6.2 6.9 100 0.0 CALM 0 0 0 0 1028.8 - 0.2
26/07:00am 5.8 4.8 5.6 99 0.1 CALM 0 0 0 0 1028.7 - 0.2
26/06:30am 5.5 4.5 5.5 100 0.0 CALM 0 0 0 0 1028.5 - 0.2
26/06:00am 5.5 4.4 5.3 99 0.1 CALM 0 0 0 0 1028.2 1028.3 0.2
26/05:30am 5.8 4.7 5.1 95 0.3 CALM 0 0 0 0 1028.0 - 0.2
26/05:12am 5.6 4.4 4.7 94 0.4 CALM 0 0 0 0 1028.1 - 0.2
26/05:00am 5.6 2.9 5.6 100 0.0 E 9 13 5 7 1028.0 - 0.2
26/04:30am 5.8 3.5 5.8 100 0.0 ENE 7 9 4 5 1027.9 - 0.2
26/04:13am 5.6 2.9 5.4 99 0.1 E 9 11 5 6 1028.0 - 0.2
26/04:00am 5.5 3.1 5.3 99 0.1 E 7 9 4 5 1028.0 - 0.2
26/03:30am 5.8 4.1 5.8 100 0.0 E 4 7 2 4 1028.2 - 0.2
26/03:00am 6.3 3.7 6.1 99 0.1 E 9 13 5 7 1028.4 1028.5 0.2
26/02:30am 6.0 3.7 5.8 99 0.1 ESE 7 9 4 5 1028.6 - 0.2
26/02:00am 5.8 4.7 5.3 97 0.2 CALM 0 0 0 0 1028.9 - 0.2
26/01:30am 5.6 4.5 4.9 95 0.3 CALM 0 4 0 2 1028.9 - 0.2
26/01:00am 7.0 5.0 6.3 95 0.3 SW 6 7 3 4 1029.0 - 0.2
26/12:36am 7.0 5.1 6.6 97 0.2 S 6 9 3 5 1029.2 - 0.2
26/12:30am 7.2 6.1 6.8 97 0.2 SE 2 7 1 4 1029.1 - 0.2
26/12:00am 8.0 6.1 7.4 96 0.3 ESE 7 9 4 5 1029.2 1029.3 0.2
 
Date/Time
CST
Temp
°C
App
Temp
°C
Dew
Point
Rel
Hum
%
Delta-T
°C
Wind Press
QNH
hPa
Press
MSL
hPa
Rain
since 9 am
mm
Dir
 
Spd
km/h
Gust
km/h
Spd
kts
Gust
kts
25/11:30pm 8.0 4.9 7.1 94 0.4 E 13 17 7 9 1029.2 - 0.2
25/11:00pm 8.3 5.2 7.4 94 0.4 ESE 13 15 7 8 1029.3 - 0.2
25/10:30pm 8.4 5.4 7.5 94 0.4 ESE 13 17 7 9 1029.5 - 0.2
25/10:00pm 8.5 5.5 7.7 95 0.4 SE 13 17 7 9 1029.6 - 0.2
25/09:30pm 8.8 5.5 8.0 95 0.4 ESE 15 17 8 9 1029.7 - 0.2
25/09:00pm 8.5 5.4 7.4 93 0.5 SE 13 17 7 9 1029.8 1029.9 0.2
25/08:30pm 8.6 5.6 7.8 95 0.4 SSE 13 15 7 8 1029.7 - 0.2
25/08:00pm 8.6 6.0 7.8 95 0.4 SE 11 15 6 8 1029.5 - 0.2
25/07:30pm 9.2 6.3 8.2 93 0.5 SSE 13 15 7 8 1029.3 - 0.2
25/07:00pm 10.0 7.2 8.6 91 0.7 SSE 13 19 7 10 1029.3 - 0.2
25/06:30pm 11.4 7.6 9.2 86 1.1 S 19 22 10 12 1029.3 - 0.2
25/06:00pm 12.0 8.3 9.4 84 1.3 S 19 24 10 13 1029.3 1029.4 0.2
25/05:30pm 12.6 8.6 9.0 79 1.8 S 20 26 11 14 1029.1 - 0.2
25/05:00pm 12.5 8.3 8.2 75 2.1 S 20 26 11 14 1028.7 - 0.2
25/04:30pm 13.6 9.5 8.6 72 2.5 S 20 26 11 14 1028.6 - 0.2
25/04:00pm 14.1 9.6 8.7 70 2.7 S 22 26 12 14 1028.4 - 0.2
25/03:30pm 15.2 10.7 8.7 65 3.3 S 22 30 12 16 1028.2 - 0.2
25/03:00pm 15.4 11.4 9.1 66 3.2 S 20 26 11 14 1028.4 1028.5 0.2
25/02:30pm 15.7 12.0 8.1 60 3.8 S 17 22 9 12 1028.5 - 0.2
25/02:00pm 14.9 11.3 8.5 65 3.2 SSE 17 22 9 12 1028.7 - 0.2
25/01:30pm 14.9 10.2 7.8 62 3.5 S 22 28 12 15 1028.8 - 0.2
25/01:00pm 16.4 12.6 9.0 61 3.8 SSE 19 26 10 14 1028.9 - 0.2
25/12:30pm 14.1 10.4 9.6 74 2.3 S 19 24 10 13 1029.2 - 0.2
25/12:00pm 14.7 10.8 9.6 71 2.6 S 20 28 11 15 1029.5 1029.6 0.2
25/11:30am 14.3 10.3 9.2 71 2.6 S 20 28 11 15 1029.9 - 0.0
25/11:00am 13.4 9.6 9.7 78 1.9 SSW 20 28 11 15 1030.1 - 0.0
25/10:30am 13.0 10.2 11.3 89 0.9 SSW 17 22 9 12 1030.4 - 0.0
25/10:00am 11.6 8.9 10.4 92 0.6 S 15 19 8 10 1030.5 - 0.0
25/09:43am 11.8 7.9 9.6 86 1.1 SSW 20 28 11 15 1030.5 - 0.0
25/09:30am 12.1 7.4 9.3 83 1.4 SSW 24 32 13 17 1030.5 - 0.0
25/09:00am 12.4 8.0 9.0 80 1.7 SSW 22 28 12 15 1030.6 1030.7 0.0
25/08:30am 12.5 9.0 8.9 79 1.8 SW 17 24 9 13 1030.6 - 0.0
25/08:00am 11.2 8.0 8.3 82 1.4 SW 15 20 8 11 1030.5 - 0.0
25/07:30am 11.2 7.9 7.9 80 1.6 SW 15 20 8 11 1030.3 - 0.0
25/07:00am 10.3 6.9 7.8 84 1.2 SW 15 19 8 10 1030.2 - 0.0

Other Formats:

Comma delimited format used in spreadsheet applications
http://www.bom.gov.au/fwo/IDS60801/IDS60801.94821.axf

JavaScript Object Notation format (JSON) in row-major order
http://www.bom.gov.au/fwo/IDS60801/IDS60801.94821.json